Aviation WX

[Source: ADDS]
METAR
KFKL 270455Z 22006KT 10SM 11/09 A2999 RMK AO1 =
TAF
KFKL 262327Z 2700/2724 25007KT P6SM OVC035 FM270100 27007KT P6SM SCT120 FM270600 23006KT P6SM SKC FM271600 23010G21KT P6SM SKC AMD NOT SKED =